createdAt,value
2024-05-09T00:00:50.694Z,19.40
2024-05-09T00:05:56.184Z,19.50
2024-05-09T00:11:04.440Z,19.50
2024-05-09T00:16:10.419Z,19.50
2024-05-09T00:21:16.480Z,19.40
2024-05-09T00:26:24.681Z,19.50
2024-05-09T00:31:30.113Z,19.40
2024-05-09T00:36:35.467Z,19.50
2024-05-09T00:41:43.565Z,19.50
2024-05-09T00:46:48.980Z,19.40
2024-05-09T00:51:54.485Z,19.40
2024-05-09T00:57:02.664Z,19.40
2024-05-09T01:02:09.756Z,19.40
2024-05-09T01:07:15.903Z,19.50
2024-05-09T01:12:24.905Z,19.40
2024-05-09T01:17:30.912Z,19.50
2024-05-09T01:22:37.806Z,19.50
2024-05-09T01:27:45.840Z,19.50
2024-05-09T01:32:51.458Z,19.40
2024-05-09T01:37:57.025Z,19.40
2024-05-09T01:43:05.092Z,19.40
2024-05-09T01:48:11.638Z,19.40
2024-05-09T01:53:17.834Z,19.50
2024-05-09T01:58:26.079Z,19.40
2024-05-09T02:03:31.667Z,19.40
2024-05-09T02:08:37.352Z,19.40
2024-05-09T02:13:45.476Z,19.40
2024-05-09T02:18:51.491Z,19.40
2024-05-09T02:23:56.882Z,19.40
2024-05-09T02:29:05.023Z,19.40
2024-05-09T02:34:10.569Z,19.40
2024-05-09T02:39:16.050Z,19.40
2024-05-09T02:44:24.489Z,19.40
2024-05-09T02:49:30.203Z,19.40
2024-05-09T02:54:35.605Z,19.40
2024-05-09T02:59:43.646Z,19.40
2024-05-09T03:04:49.190Z,19.50
2024-05-09T03:09:54.608Z,19.40
2024-05-09T03:15:02.639Z,19.40
2024-05-09T03:20:17.386Z,19.40
2024-05-09T03:25:28.941Z,19.50
2024-05-09T03:30:41.830Z,19.40
2024-05-09T03:35:49.694Z,19.50
2024-05-09T03:40:55.407Z,19.40
2024-05-09T03:46:03.472Z,19.40
2024-05-09T03:51:09.831Z,19.40
2024-05-09T03:56:15.411Z,19.50
2024-05-09T04:01:25.323Z,19.40
2024-05-09T04:06:30.740Z,19.40
2024-05-09T04:11:36.227Z,19.40
2024-05-09T04:16:44.615Z,19.50
2024-05-09T04:21:49.998Z,19.40
2024-05-09T04:26:55.336Z,19.40
2024-05-09T04:32:03.533Z,19.50
2024-05-09T04:37:08.911Z,19.40
2024-05-09T04:42:14.261Z,19.50
2024-05-09T04:47:22.503Z,19.40
2024-05-09T04:52:27.954Z,19.50
2024-05-09T04:57:33.318Z,19.50
2024-05-09T05:02:41.430Z,19.40
2024-05-09T05:07:47.292Z,19.50
2024-05-09T05:13:08.633Z,19.50
2024-05-09T05:18:17.931Z,19.40
2024-05-09T05:23:24.606Z,19.50
2024-05-09T05:28:30.211Z,19.40
2024-05-09T05:33:38.449Z,19.30
2024-05-09T05:38:45.416Z,19.40
2024-05-09T05:43:51.024Z,19.50
2024-05-09T05:49:00.486Z,19.50
2024-05-09T05:54:05.899Z,19.40
2024-05-09T05:59:13.410Z,19.50
2024-05-09T06:04:22.795Z,19.50
2024-05-09T06:09:28.206Z,19.40
2024-05-09T06:14:33.686Z,19.50
2024-05-09T06:19:41.891Z,19.50
2024-05-09T06:24:47.475Z,19.50
2024-05-09T06:29:52.848Z,19.40
2024-05-09T06:35:00.948Z,19.50
2024-05-09T06:40:07.601Z,19.40
2024-05-09T06:45:16.001Z,19.50
2024-05-09T06:50:28.457Z,19.50
2024-05-09T06:55:37.654Z,19.50
2024-05-09T07:00:43.453Z,19.50
2024-05-09T07:05:51.675Z,19.50
2024-05-09T07:10:57.492Z,19.50
2024-05-09T07:16:03.367Z,19.40
2024-05-09T07:21:12.044Z,19.40
2024-05-09T07:26:17.615Z,19.50
2024-05-09T07:31:23.640Z,19.50
2024-05-09T07:36:31.730Z,19.50
2024-05-09T07:41:37.508Z,19.50
2024-05-09T07:53:21.656Z,19.50
2024-05-09T07:57:19.408Z,19.60
2024-05-09T08:02:25.060Z,19.60
2024-05-09T08:07:35.415Z,19.60
2024-05-09T08:12:40.820Z,19.50
2024-05-09T08:17:46.362Z,19.60
2024-05-09T08:22:54.467Z,19.50
2024-05-09T08:27:59.964Z,19.50
2024-05-09T08:33:06.475Z,19.50
2024-05-09T08:38:15.397Z,19.60
2024-05-09T08:43:23.235Z,19.50
2024-05-09T08:48:29.312Z,19.50
2024-05-09T08:53:37.527Z,19.50
2024-05-09T08:58:43.630Z,19.50
2024-05-09T09:03:49.500Z,19.50
2024-05-09T09:08:57.712Z,19.60
2024-05-09T09:14:03.222Z,19.50
2024-05-09T09:19:08.750Z,19.60
2024-05-09T09:24:17.028Z,19.50
2024-05-09T09:29:23.589Z,19.60
2024-05-09T09:34:31.649Z,19.60
2024-05-09T09:39:42.210Z,19.50
2024-05-09T09:44:57.783Z,19.60
2024-05-09T09:50:14.268Z,19.50
2024-05-09T09:55:25.309Z,19.60
2024-05-09T10:00:33.389Z,19.50
2024-05-09T10:05:42.084Z,19.50
2024-05-09T10:10:52.569Z,19.60
2024-05-09T10:15:58.134Z,19.60
2024-05-09T10:21:03.483Z,19.50
2024-05-09T10:26:11.542Z,19.50
2024-05-09T10:31:19.015Z,19.50
2024-05-09T10:36:25.365Z,19.50
2024-05-09T10:41:33.399Z,19.60
2024-05-09T10:46:38.775Z,19.60
2024-05-09T10:51:44.984Z,19.60
2024-05-09T10:56:59.170Z,19.60
2024-05-09T11:02:07.902Z,19.50
2024-05-09T11:07:15.252Z,19.50
2024-05-09T11:12:24.777Z,19.60
2024-05-09T11:17:30.477Z,19.60
2024-05-09T11:22:36.031Z,19.60
2024-05-09T11:27:45.262Z,19.60
2024-05-09T11:32:50.779Z,19.60
2024-05-09T11:37:56.261Z,19.60
2024-05-09T11:43:04.384Z,19.60
2024-05-09T11:48:10.581Z,19.60
2024-05-09T11:53:16.072Z,19.60
2024-05-09T11:58:24.274Z,19.50
2024-05-09T12:03:29.749Z,19.50
2024-05-09T12:08:35.212Z,19.60
2024-05-09T12:13:43.307Z,19.60
2024-05-09T12:18:48.762Z,19.60
2024-05-09T12:23:54.230Z,19.60
2024-05-09T12:29:02.259Z,19.60
2024-05-09T12:34:07.923Z,19.60
2024-05-09T12:39:13.367Z,19.60
2024-05-09T12:44:21.484Z,19.60
2024-05-09T12:49:27.322Z,19.60
2024-05-09T12:54:33.795Z,19.60
2024-05-09T12:59:41.922Z,19.60
2024-05-09T13:04:47.387Z,19.60
2024-05-09T13:09:52.866Z,19.60
2024-05-09T13:15:01.080Z,19.60
2024-05-09T13:20:09.300Z,19.60
2024-05-09T13:25:17.489Z,19.60
2024-05-09T13:30:30.053Z,19.60
2024-05-09T13:35:48.699Z,19.70
2024-05-09T13:40:56.022Z,19.60
2024-05-09T13:46:04.326Z,19.60
2024-05-09T13:51:09.744Z,19.60
2024-05-09T13:56:15.179Z,19.70
2024-05-09T14:01:23.320Z,19.70
2024-05-09T14:06:28.974Z,19.60
2024-05-09T14:11:34.428Z,19.60
2024-05-09T14:16:42.715Z,19.60
2024-05-09T14:21:48.686Z,19.60
2024-05-09T14:26:54.064Z,19.70
2024-05-09T14:32:02.310Z,19.60
2024-05-09T14:37:08.080Z,19.70
2024-05-09T14:42:13.432Z,19.70
2024-05-09T14:47:21.553Z,19.70
2024-05-09T14:52:27.350Z,19.70
2024-05-09T14:57:32.765Z,19.70
2024-05-09T15:02:40.859Z,19.80
2024-05-09T15:07:46.953Z,19.70
2024-05-09T15:12:52.384Z,19.70
2024-05-09T15:18:00.872Z,19.70
2024-05-09T15:23:07.690Z,19.80
2024-05-09T15:28:13.084Z,19.70
2024-05-09T15:33:21.346Z,19.70
2024-05-09T15:38:27.792Z,19.70
2024-05-09T15:43:33.531Z,19.70
2024-05-09T15:48:44.638Z,19.70
2024-05-09T15:53:50.484Z,19.70
2024-05-09T15:58:55.958Z,19.70
2024-05-09T16:04:04.345Z,19.70
2024-05-09T16:09:11.231Z,19.70
2024-05-09T16:14:16.822Z,19.70
2024-05-09T16:19:24.933Z,19.70
2024-05-09T16:24:30.509Z,19.70
2024-05-09T16:29:35.925Z,19.80
2024-05-09T16:34:44.083Z,19.70
2024-05-09T16:39:49.569Z,19.80
2024-05-09T16:44:54.971Z,19.80
2024-05-09T16:50:03.757Z,19.80
2024-05-09T16:55:10.536Z,19.80
2024-05-09T17:00:25.248Z,19.80
2024-05-09T17:05:39.780Z,19.80
2024-05-09T17:10:46.228Z,19.80
2024-05-09T17:15:52.040Z,19.80
2024-05-09T17:21:00.177Z,19.70
2024-05-09T17:26:05.734Z,19.80
2024-05-09T17:31:11.229Z,19.80
2024-05-09T17:36:19.999Z,19.80
2024-05-09T17:41:25.401Z,19.80
2024-05-09T17:46:31.003Z,19.80
2024-05-09T17:51:39.338Z,19.80
2024-05-09T17:56:44.793Z,19.80
2024-05-09T18:01:50.255Z,19.80
2024-05-09T18:06:58.506Z,19.90
2024-05-09T18:12:03.996Z,19.80
2024-05-09T18:17:09.550Z,19.80
2024-05-09T18:22:17.642Z,19.80
2024-05-09T18:27:23.682Z,19.90
2024-05-09T18:32:29.208Z,19.90
2024-05-09T18:37:37.383Z,19.90
2024-05-09T18:42:43.703Z,19.80
2024-05-09T18:47:49.206Z,19.90
2024-05-09T18:52:57.296Z,19.90
2024-05-09T18:58:03.000Z,19.90
2024-05-09T19:03:11.766Z,19.90
2024-05-09T19:08:21.752Z,19.90
2024-05-09T19:13:27.614Z,19.90
2024-05-09T19:18:33.665Z,19.90
2024-05-09T19:23:47.158Z,19.90
2024-05-09T19:28:57.392Z,19.90
2024-05-09T19:34:02.808Z,19.90
2024-05-09T19:39:11.713Z,19.90
2024-05-09T19:44:17.089Z,19.90
2024-05-09T19:49:23.082Z,19.90
2024-05-09T19:54:31.439Z,19.80
2024-05-09T19:59:36.864Z,19.90
2024-05-09T20:04:45.919Z,19.90
2024-05-09T20:09:54.523Z,19.90
2024-05-09T20:14:59.934Z,19.90
2024-05-09T20:20:09.184Z,19.90
2024-05-09T20:25:21.727Z,19.90
2024-05-09T20:30:32.107Z,19.90
2024-05-09T20:35:39.216Z,19.90
2024-05-09T20:40:47.387Z,19.90
2024-05-09T20:45:52.924Z,19.90
2024-05-09T20:50:58.426Z,19.90
2024-05-09T20:56:06.556Z,19.90
2024-05-09T21:01:12.003Z,19.90
2024-05-09T21:06:17.690Z,19.90
2024-05-09T21:11:25.922Z,19.90
2024-05-09T21:16:34.115Z,20.00
2024-05-09T21:21:42.395Z,20.00
2024-05-09T21:26:50.502Z,20.00
2024-05-09T21:31:55.888Z,20.00
2024-05-09T21:37:01.355Z,20.00
2024-05-09T21:42:09.550Z,20.00
2024-05-09T21:47:15.083Z,20.00
2024-05-09T21:52:20.810Z,20.00
2024-05-09T21:57:28.880Z,20.10
2024-05-09T22:02:34.261Z,20.00
2024-05-09T22:07:39.679Z,20.10
2024-05-09T22:12:47.938Z,20.10
2024-05-09T22:17:53.902Z,20.10
2024-05-09T22:22:59.387Z,20.00
2024-05-09T22:28:08.033Z,20.00
2024-05-09T22:33:13.679Z,20.00
2024-05-09T22:38:19.205Z,20.00
2024-05-09T22:43:27.335Z,20.00
2024-05-09T22:48:32.932Z,20.00
2024-05-09T22:53:38.425Z,20.00
2024-05-09T22:58:46.490Z,20.00
2024-05-09T23:03:52.063Z,20.00
2024-05-09T23:08:57.535Z,20.00
2024-05-09T23:14:05.719Z,20.00
2024-05-09T23:19:11.420Z,20.00
2024-05-09T23:24:16.828Z,20.10
2024-05-09T23:29:24.970Z,20.00
2024-05-09T23:34:30.449Z,20.10
2024-05-09T23:39:35.998Z,20.10
2024-05-09T23:44:44.224Z,20.20
2024-05-09T23:49:49.582Z,20.00
2024-05-09T23:54:54.967Z,20.00
